sensor_id;sensor_type;location;lat;lon;timestamp;pressure;altitude;pressure_sealevel;temperature;humidity
3122;BME280;1571;52.524;14.104;2023-11-21T00:00:55;100390.28;;;5.95;100.00
3122;BME280;1571;52.524;14.104;2023-11-21T00:03:23;100397.19;;;5.97;100.00
3122;BME280;1571;52.524;14.104;2023-11-21T00:05:51;100396.41;;;5.95;100.00
3122;BME280;1571;52.524;14.104;2023-11-21T00:08:20;100389.00;;;6.03;100.00
3122;BME280;1571;52.524;14.104;2023-11-21T00:10:49;100390.69;;;6.04;100.00
3122;BME280;1571;52.524;14.104;2023-11-21T00:13:18;100389.16;;;6.18;100.00
3122;BME280;1571;52.524;14.104;2023-11-21T00:15:46;100400.38;;;6.04;100.00
3122;BME280;1571;52.524;14.104;2023-11-21T00:18:14;100409.16;;;5.86;100.00
3122;BME280;1571;52.524;14.104;2023-11-21T00:20:43;100407.00;;;5.75;100.00
3122;BME280;1571;52.524;14.104;2023-11-21T00:23:12;100404.44;;;5.73;100.00
3122;BME280;1571;52.524;14.104;2023-11-21T00:25:40;100415.03;;;5.72;100.00
3122;BME280;1571;52.524;14.104;2023-11-21T00:28:10;100410.91;;;5.85;100.00
3122;BME280;1571;52.524;14.104;2023-11-21T00:30:38;100415.25;;;5.86;100.00
3122;BME280;1571;52.524;14.104;2023-11-21T00:33:07;100415.09;;;5.89;100.00
3122;BME280;1571;52.524;14.104;2023-11-21T00:35:35;100426.09;;;5.80;100.00
3122;BME280;1571;52.524;14.104;2023-11-21T00:38:04;100422.09;;;5.71;100.00
3122;BME280;1571;52.524;14.104;2023-11-21T00:40:32;100416.56;;;5.58;100.00
3122;BME280;1571;52.524;14.104;2023-11-21T00:43:01;100418.69;;;5.50;100.00
3122;BME280;1571;52.524;14.104;2023-11-21T00:45:33;100423.75;;;5.55;100.00
3122;BME280;1571;52.524;14.104;2023-11-21T00:48:03;100423.53;;;5.59;100.00
3122;BME280;1571;52.524;14.104;2023-11-21T00:50:32;100431.00;;;5.31;100.00
3122;BME280;1571;52.524;14.104;2023-11-21T00:53:00;100429.72;;;5.39;100.00
3122;BME280;1571;52.524;14.104;2023-11-21T00:55:29;100433.84;;;5.26;100.00
3122;BME280;1571;52.524;14.104;2023-11-21T00:57:58;100433.13;;;5.22;100.00
3122;BME280;1571;52.524;14.104;2023-11-21T01:00:27;100435.78;;;5.22;100.00
3122;BME280;1571;52.524;14.104;2023-11-21T01:02:57;100445.25;;;5.06;100.00
3122;BME280;1571;52.524;14.104;2023-11-21T01:05:25;100442.13;;;4.98;100.00
3122;BME280;1571;52.524;14.104;2023-11-21T01:07:54;100451.31;;;5.08;100.00
3122;BME280;1571;52.524;14.104;2023-11-21T01:10:22;100445.84;;;5.13;100.00
3122;BME280;1571;52.524;14.104;2023-11-21T01:12:52;100439.97;;;5.06;100.00
3122;BME280;1571;52.524;14.104;2023-11-21T01:15:20;100445.41;;;5.03;100.00
3122;BME280;1571;52.524;14.104;2023-11-21T01:17:48;100451.09;;;5.13;100.00
3122;BME280;1571;52.524;14.104;2023-11-21T01:20:18;100460.53;;;4.98;100.00
3122;BME280;1571;52.524;14.104;2023-11-21T01:22:47;100461.59;;;4.94;100.00
3122;BME280;1571;52.524;14.104;2023-11-21T01:25:16;100460.97;;;5.08;100.00
3122;BME280;1571;52.524;14.104;2023-11-21T01:27:45;100460.78;;;5.12;100.00
3122;BME280;1571;52.524;14.104;2023-11-21T01:30:13;100463.81;;;5.03;100.00
3122;BME280;1571;52.524;14.104;2023-11-21T01:32:42;100466.06;;;4.92;100.00
3122;BME280;1571;52.524;14.104;2023-11-21T01:35:10;100467.75;;;4.93;100.00
3122;BME280;1571;52.524;14.104;2023-11-21T01:37:40;100463.16;;;4.98;100.00
3122;BME280;1571;52.524;14.104;2023-11-21T01:40:10;100458.41;;;4.86;100.00
3122;BME280;1571;52.524;14.104;2023-11-21T01:42:42;100460.16;;;4.87;100.00
3122;BME280;1571;52.524;14.104;2023-11-21T01:45:11;100456.59;;;4.88;100.00
3122;BME280;1571;52.524;14.104;2023-11-21T01:47:41;100468.94;;;4.86;100.00
3122;BME280;1571;52.524;14.104;2023-11-21T01:50:14;100468.16;;;4.84;100.00
3122;BME280;1571;52.524;14.104;2023-11-21T01:52:45;100462.31;;;4.77;100.00
3122;BME280;1571;52.524;14.104;2023-11-21T01:55:15;100463.44;;;4.92;100.00
3122;BME280;1571;52.524;14.104;2023-11-21T01:57:55;100465.84;;;4.96;100.00
3122;BME280;1571;52.524;14.104;2023-11-21T02:00:24;100471.91;;;4.78;100.00
3122;BME280;1571;52.524;14.104;2023-11-21T02:02:53;100469.59;;;4.70;100.00
3122;BME280;1571;52.524;14.104;2023-11-21T02:05:21;100472.94;;;4.53;100.00
3122;BME280;1571;52.524;14.104;2023-11-21T02:07:51;100476.69;;;4.68;100.00
3122;BME280;1571;52.524;14.104;2023-11-21T02:10:20;100484.56;;;4.68;100.00
3122;BME280;1571;52.524;14.104;2023-11-21T02:12:51;100479.66;;;4.81;100.00
3122;BME280;1571;52.524;14.104;2023-11-21T02:15:20;100477.69;;;4.66;100.00
3122;BME280;1571;52.524;14.104;2023-11-21T02:17:50;100483.94;;;4.63;100.00
3122;BME280;1571;52.524;14.104;2023-11-21T02:20:20;100484.81;;;4.84;100.00
3122;BME280;1571;52.524;14.104;2023-11-21T02:22:54;100492.31;;;4.93;100.00
3122;BME280;1571;52.524;14.104;2023-11-21T02:25:26;100481.00;;;4.71;100.00
3122;BME280;1571;52.524;14.104;2023-11-21T02:27:56;100486.44;;;4.87;100.00
3122;BME280;1571;52.524;14.104;2023-11-21T02:30:25;100480.66;;;4.78;100.00
3122;BME280;1571;52.524;14.104;2023-11-21T02:32:55;100474.34;;;4.83;100.00
3122;BME280;1571;52.524;14.104;2023-11-21T02:35:25;100481.44;;;4.80;100.00
3122;BME280;1571;52.524;14.104;2023-11-21T02:37:55;100484.66;;;4.87;100.00
3122;BME280;1571;52.524;14.104;2023-11-21T02:40:24;100481.19;;;4.66;100.00
3122;BME280;1571;52.524;14.104;2023-11-21T02:42:54;100474.66;;;4.75;100.00
3122;BME280;1571;52.524;14.104;2023-11-21T02:45:25;100478.28;;;4.72;100.00
3122;BME280;1571;52.524;14.104;2023-11-21T02:47:53;100475.53;;;4.75;100.00
3122;BME280;1571;52.524;14.104;2023-11-21T02:50:25;100470.13;;;4.78;100.00
3122;BME280;1571;52.524;14.104;2023-11-21T02:52:55;100480.72;;;4.77;100.00
3122;BME280;1571;52.524;14.104;2023-11-21T02:55:27;100471.19;;;4.74;100.00
3122;BME280;1571;52.524;14.104;2023-11-21T02:57:56;100473.66;;;4.57;100.00
3122;BME280;1571;52.524;14.104;2023-11-21T03:00:24;100472.75;;;4.58;100.00
3122;BME280;1571;52.524;14.104;2023-11-21T03:06:09;100466.56;;;4.59;100.00
3122;BME280;1571;52.524;14.104;2023-11-21T03:08:38;100470.78;;;4.63;100.00
3122;BME280;1571;52.524;14.104;2023-11-21T03:11:09;100471.44;;;4.68;100.00
3122;BME280;1571;52.524;14.104;2023-11-21T03:13:38;100478.63;;;4.65;100.00
3122;BME280;1571;52.524;14.104;2023-11-21T03:16:07;100477.63;;;4.67;100.00
3122;BME280;1571;52.524;14.104;2023-11-21T03:18:36;100478.81;;;4.60;100.00
3122;BME280;1571;52.524;14.104;2023-11-21T03:21:05;100490.03;;;4.64;100.00
3122;BME280;1571;52.524;14.104;2023-11-21T03:23:34;100485.75;;;4.61;100.00
3122;BME280;1571;52.524;14.104;2023-11-21T03:26:04;100493.13;;;4.53;100.00
3122;BME280;1571;52.524;14.104;2023-11-21T03:28:35;100490.00;;;4.43;100.00
3122;BME280;1571;52.524;14.104;2023-11-21T03:31:04;100490.59;;;4.50;100.00
3122;BME280;1571;52.524;14.104;2023-11-21T03:33:33;100488.97;;;4.47;100.00
3122;BME280;1571;52.524;14.104;2023-11-21T03:36:02;100489.81;;;4.48;100.00
3122;BME280;1571;52.524;14.104;2023-11-21T03:38:30;100503.97;;;4.66;100.00
3122;BME280;1571;52.524;14.104;2023-11-21T03:40:59;100513.78;;;4.62;100.00
3122;BME280;1571;52.524;14.104;2023-11-21T03:43:29;100505.50;;;4.71;100.00
3122;BME280;1571;52.524;14.104;2023-11-21T03:45:57;100511.94;;;4.64;100.00
3122;BME280;1571;52.524;14.104;2023-11-21T03:48:26;100509.38;;;4.63;100.00
3122;BME280;1571;52.524;14.104;2023-11-21T03:50:54;100505.78;;;4.86;100.00
3122;BME280;1571;52.524;14.104;2023-11-21T03:53:22;100513.88;;;4.59;100.00
3122;BME280;1571;52.524;14.104;2023-11-21T03:55:50;100518.06;;;4.65;100.00
3122;BME280;1571;52.524;14.104;2023-11-21T03:58:18;100513.81;;;4.40;100.00
3122;BME280;1571;52.524;14.104;2023-11-21T04:00:48;100515.38;;;4.44;100.00
3122;BME280;1571;52.524;14.104;2023-11-21T04:03:16;100507.50;;;4.44;100.00
3122;BME280;1571;52.524;14.104;2023-11-21T04:05:45;100512.19;;;4.36;100.00
3122;BME280;1571;52.524;14.104;2023-11-21T04:08:14;100502.44;;;4.40;100.00
3122;BME280;1571;52.524;14.104;2023-11-21T04:10:42;100507.78;;;4.36;100.00
3122;BME280;1571;52.524;14.104;2023-11-21T04:13:10;100513.78;;;4.18;100.00
3122;BME280;1571;52.524;14.104;2023-11-21T04:15:39;100518.59;;;4.30;100.00
3122;BME280;1571;52.524;14.104;2023-11-21T04:18:08;100519.03;;;4.18;100.00
3122;BME280;1571;52.524;14.104;2023-11-21T04:20:37;100520.13;;;4.34;100.00
3122;BME280;1571;52.524;14.104;2023-11-21T04:23:05;100520.66;;;4.22;100.00
3122;BME280;1571;52.524;14.104;2023-11-21T04:25:33;100520.03;;;4.37;100.00
3122;BME280;1571;52.524;14.104;2023-11-21T04:28:02;100522.03;;;4.09;100.00
3122;BME280;1571;52.524;14.104;2023-11-21T04:30:31;100530.00;;;4.29;100.00
3122;BME280;1571;52.524;14.104;2023-11-21T04:32:59;100534.59;;;4.24;100.00
3122;BME280;1571;52.524;14.104;2023-11-21T04:35:29;100532.97;;;4.20;100.00
3122;BME280;1571;52.524;14.104;2023-11-21T04:37:58;100536.59;;;4.40;100.00
3122;BME280;1571;52.524;14.104;2023-11-21T04:40:26;100544.78;;;4.32;100.00
3122;BME280;1571;52.524;14.104;2023-11-21T04:42:54;100539.78;;;4.26;100.00
3122;BME280;1571;52.524;14.104;2023-11-21T04:45:24;100546.41;;;4.34;100.00
3122;BME280;1571;52.524;14.104;2023-11-21T04:47:52;100548.75;;;4.20;100.00
3122;BME280;1571;52.524;14.104;2023-11-21T04:50:20;100557.19;;;4.28;100.00
3122;BME280;1571;52.524;14.104;2023-11-21T04:52:50;100552.53;;;4.13;100.00
3122;BME280;1571;52.524;14.104;2023-11-21T04:55:18;100554.69;;;4.25;100.00
3122;BME280;1571;52.524;14.104;2023-11-21T04:57:46;100564.59;;;4.41;100.00
3122;BME280;1571;52.524;14.104;2023-11-21T05:00:15;100557.44;;;4.22;100.00
3122;BME280;1571;52.524;14.104;2023-11-21T05:02:44;100561.28;;;4.35;100.00
3122;BME280;1571;52.524;14.104;2023-11-21T05:05:12;100567.72;;;4.28;100.00
3122;BME280;1571;52.524;14.104;2023-11-21T05:07:41;100575.50;;;4.08;100.00
3122;BME280;1571;52.524;14.104;2023-11-21T05:10:11;100580.41;;;4.17;100.00
3122;BME280;1571;52.524;14.104;2023-11-21T05:12:42;100575.97;;;4.19;100.00
3122;BME280;1571;52.524;14.104;2023-11-21T05:15:14;100580.75;;;4.08;100.00
3122;BME280;1571;52.524;14.104;2023-11-21T05:17:43;100583.56;;;4.03;100.00
3122;BME280;1571;52.524;14.104;2023-11-21T05:20:14;100587.13;;;4.01;100.00
3122;BME280;1571;52.524;14.104;2023-11-21T05:22:45;100587.13;;;4.01;100.00
3122;BME280;1571;52.524;14.104;2023-11-21T05:25:16;100585.41;;;4.01;100.00
3122;BME280;1571;52.524;14.104;2023-11-21T05:27:46;100590.53;;;4.04;100.00
3122;BME280;1571;52.524;14.104;2023-11-21T05:30:15;100592.28;;;3.80;100.00
3122;BME280;1571;52.524;14.104;2023-11-21T05:32:43;100603.66;;;3.81;100.00
3122;BME280;1571;52.524;14.104;2023-11-21T05:35:13;100603.19;;;3.93;100.00
3122;BME280;1571;52.524;14.104;2023-11-21T05:37:44;100602.00;;;4.02;100.00
3122;BME280;1571;52.524;14.104;2023-11-21T05:40:15;100604.81;;;3.97;100.00
3122;BME280;1571;52.524;14.104;2023-11-21T05:42:44;100605.06;;;3.89;100.00
3122;BME280;1571;52.524;14.104;2023-11-21T05:45:12;100604.50;;;3.81;100.00
3122;BME280;1571;52.524;14.104;2023-11-21T05:47:42;100615.41;;;3.70;100.00
3122;BME280;1571;52.524;14.104;2023-11-21T05:50:14;100614.38;;;3.74;100.00
3122;BME280;1571;52.524;14.104;2023-11-21T05:52:44;100626.53;;;3.77;100.00
3122;BME280;1571;52.524;14.104;2023-11-21T05:55:14;100629.59;;;3.90;100.00
3122;BME280;1571;52.524;14.104;2023-11-21T05:57:43;100630.59;;;3.86;100.00
3122;BME280;1571;52.524;14.104;2023-11-21T06:00:13;100639.47;;;3.83;100.00
3122;BME280;1571;52.524;14.104;2023-11-21T06:02:47;100641.47;;;3.51;100.00
3122;BME280;1571;52.524;14.104;2023-11-21T06:05:17;100637.22;;;3.72;100.00
3122;BME280;1571;52.524;14.104;2023-11-21T06:07:46;100644.00;;;3.53;100.00
3122;BME280;1571;52.524;14.104;2023-11-21T06:10:16;100659.91;;;3.48;100.00
3122;BME280;1571;52.524;14.104;2023-11-21T06:12:46;100669.78;;;3.42;100.00
3122;BME280;1571;52.524;14.104;2023-11-21T06:15:15;100657.00;;;3.31;100.00
3122;BME280;1571;52.524;14.104;2023-11-21T06:17:46;100657.78;;;3.34;100.00
3122;BME280;1571;52.524;14.104;2023-11-21T06:20:19;100650.59;;;3.40;100.00
3122;BME280;1571;52.524;14.104;2023-11-21T06:22:49;100666.41;;;3.38;100.00
3122;BME280;1571;52.524;14.104;2023-11-21T06:25:19;100667.38;;;3.36;100.00
3122;BME280;1571;52.524;14.104;2023-11-21T06:27:48;100672.47;;;3.40;100.00
3122;BME280;1571;52.524;14.104;2023-11-21T06:30:16;100679.22;;;3.47;100.00
3122;BME280;1571;52.524;14.104;2023-11-21T06:32:47;100684.78;;;3.38;100.00
3122;BME280;1571;52.524;14.104;2023-11-21T06:35:16;100684.66;;;3.41;100.00
3122;BME280;1571;52.524;14.104;2023-11-21T06:37:45;100684.56;;;3.44;100.00
3122;BME280;1571;52.524;14.104;2023-11-21T06:40:17;100694.03;;;3.48;100.00
3122;BME280;1571;52.524;14.104;2023-11-21T06:42:48;100699.78;;;3.60;100.00
3122;BME280;1571;52.524;14.104;2023-11-21T06:45:18;100694.97;;;3.47;100.00
3122;BME280;1571;52.524;14.104;2023-11-21T06:47:47;100711.13;;;3.60;100.00
3122;BME280;1571;52.524;14.104;2023-11-21T06:50:16;100699.59;;;3.39;100.00
3122;BME280;1571;52.524;14.104;2023-11-21T06:52:45;100707.88;;;3.53;100.00
3122;BME280;1571;52.524;14.104;2023-11-21T06:55:13;100704.22;;;3.58;100.00
3122;BME280;1571;52.524;14.104;2023-11-21T06:57:43;100708.09;;;3.47;100.00
3122;BME280;1571;52.524;14.104;2023-11-21T07:00:15;100713.84;;;3.59;100.00
3122;BME280;1571;52.524;14.104;2023-11-21T07:02:45;100718.47;;;3.50;100.00
3122;BME280;1571;52.524;14.104;2023-11-21T07:05:13;100723.91;;;3.44;100.00
3122;BME280;1571;52.524;14.104;2023-11-21T07:07:42;100716.16;;;3.41;100.00
3122;BME280;1571;52.524;14.104;2023-11-21T07:10:11;100729.66;;;3.55;100.00
3122;BME280;1571;52.524;14.104;2023-11-21T07:12:39;100729.13;;;3.46;100.00
3122;BME280;1571;52.524;14.104;2023-11-21T07:15:08;100728.78;;;3.57;100.00
3122;BME280;1571;52.524;14.104;2023-11-21T07:17:38;100726.34;;;3.50;100.00
3122;BME280;1571;52.524;14.104;2023-11-21T07:20:08;100731.50;;;3.53;100.00
3122;BME280;1571;52.524;14.104;2023-11-21T07:22:38;100737.47;;;3.59;100.00
3122;BME280;1571;52.524;14.104;2023-11-21T07:25:07;100731.59;;;3.50;100.00
3122;BME280;1571;52.524;14.104;2023-11-21T07:27:36;100736.16;;;3.45;100.00
3122;BME280;1571;52.524;14.104;2023-11-21T07:30:06;100740.63;;;3.42;100.00
3122;BME280;1571;52.524;14.104;2023-11-21T07:32:38;100739.38;;;3.53;100.00
3122;BME280;1571;52.524;14.104;2023-11-21T07:35:08;100742.75;;;3.57;100.00
3122;BME280;1571;52.524;14.104;2023-11-21T07:37:37;100741.41;;;3.45;100.00
3122;BME280;1571;52.524;14.104;2023-11-21T07:40:06;100751.94;;;3.44;100.00
3122;BME280;1571;52.524;14.104;2023-11-21T07:42:36;100745.66;;;3.49;100.00
3122;BME280;1571;52.524;14.104;2023-11-21T07:45:06;100756.22;;;3.73;100.00
3122;BME280;1571;52.524;14.104;2023-11-21T07:47:35;100759.16;;;3.64;100.00
3122;BME280;1571;52.524;14.104;2023-11-21T07:50:06;100763.00;;;3.53;100.00
3122;BME280;1571;52.524;14.104;2023-11-21T07:52:35;100764.91;;;3.48;100.00
3122;BME280;1571;52.524;14.104;2023-11-21T07:55:04;100770.16;;;3.48;100.00
3122;BME280;1571;52.524;14.104;2023-11-21T07:57:32;100771.81;;;3.51;100.00
3122;BME280;1571;52.524;14.104;2023-11-21T08:00:00;100764.84;;;3.51;100.00
3122;BME280;1571;52.524;14.104;2023-11-21T08:02:38;100773.78;;;3.44;100.00
3122;BME280;1571;52.524;14.104;2023-11-21T08:05:11;100773.63;;;3.49;100.00
3122;BME280;1571;52.524;14.104;2023-11-21T08:07:51;100779.09;;;3.43;100.00
3122;BME280;1571;52.524;14.104;2023-11-21T08:10:19;100776.13;;;3.53;100.00
3122;BME280;1571;52.524;14.104;2023-11-21T08:12:49;100776.81;;;3.32;100.00
3122;BME280;1571;52.524;14.104;2023-11-21T08:15:18;100784.22;;;3.47;100.00
3122;BME280;1571;52.524;14.104;2023-11-21T08:17:47;100790.31;;;3.48;100.00
3122;BME280;1571;52.524;14.104;2023-11-21T08:20:17;100785.66;;;3.83;100.00
3122;BME280;1571;52.524;14.104;2023-11-21T08:22:45;100798.03;;;3.52;100.00
3122;BME280;1571;52.524;14.104;2023-11-21T08:25:15;100798.13;;;3.49;100.00
3122;BME280;1571;52.524;14.104;2023-11-21T08:27:44;100797.31;;;3.47;100.00
3122;BME280;1571;52.524;14.104;2023-11-21T08:30:13;100809.00;;;3.37;100.00
3122;BME280;1571;52.524;14.104;2023-11-21T08:32:44;100814.03;;;3.45;100.00
3122;BME280;1571;52.524;14.104;2023-11-21T08:35:12;100817.88;;;3.61;100.00
3122;BME280;1571;52.524;14.104;2023-11-21T08:37:42;100821.69;;;3.51;100.00
3122;BME280;1571;52.524;14.104;2023-11-21T08:40:11;100821.25;;;3.38;100.00
3122;BME280;1571;52.524;14.104;2023-11-21T08:42:44;100831.94;;;3.32;100.00
3122;BME280;1571;52.524;14.104;2023-11-21T08:45:13;100826.56;;;3.35;100.00
3122;BME280;1571;52.524;14.104;2023-11-21T08:47:41;100825.16;;;3.25;100.00
3122;BME280;1571;52.524;14.104;2023-11-21T08:50:11;100824.63;;;3.42;100.00
3122;BME280;1571;52.524;14.104;2023-11-21T08:52:42;100831.56;;;3.15;100.00
3122;BME280;1571;52.524;14.104;2023-11-21T08:55:10;100841.34;;;3.38;100.00
3122;BME280;1571;52.524;14.104;2023-11-21T08:57:41;100835.66;;;3.25;100.00
3122;BME280;1571;52.524;14.104;2023-11-21T09:00:10;100836.25;;;3.33;100.00
3122;BME280;1571;52.524;14.104;2023-11-21T09:02:39;100840.44;;;3.40;100.00
3122;BME280;1571;52.524;14.104;2023-11-21T09:05:09;100847.94;;;3.23;100.00
3122;BME280;1571;52.524;14.104;2023-11-21T09:07:39;100852.25;;;3.25;100.00
3122;BME280;1571;52.524;14.104;2023-11-21T09:10:10;100852.63;;;3.41;100.00
3122;BME280;1571;52.524;14.104;2023-11-21T09:12:38;100849.94;;;3.15;100.00
3122;BME280;1571;52.524;14.104;2023-11-21T09:15:08;100855.91;;;3.20;100.00
3122;BME280;1571;52.524;14.104;2023-11-21T09:17:38;100856.44;;;3.31;100.00
3122;BME280;1571;52.524;14.104;2023-11-21T09:20:08;100866.28;;;3.24;100.00
3122;BME280;1571;52.524;14.104;2023-11-21T09:22:37;100870.66;;;3.24;100.00
3122;BME280;1571;52.524;14.104;2023-11-21T09:25:06;100879.06;;;3.35;100.00
3122;BME280;1571;52.524;14.104;2023-11-21T09:27:37;100882.13;;;3.20;100.00
3122;BME280;1571;52.524;14.104;2023-11-21T09:30:06;100885.28;;;3.01;100.00
3122;BME280;1571;52.524;14.104;2023-11-21T09:32:39;100888.19;;;3.22;100.00
3122;BME280;1571;52.524;14.104;2023-11-21T09:35:09;100891.78;;;2.88;100.00
3122;BME280;1571;52.524;14.104;2023-11-21T09:37:37;100890.00;;;3.20;100.00
3122;BME280;1571;52.524;14.104;2023-11-21T09:40:10;100899.56;;;3.22;100.00
3122;BME280;1571;52.524;14.104;2023-11-21T09:42:45;100901.31;;;3.22;100.00
3122;BME280;1571;52.524;14.104;2023-11-21T09:45:21;100904.22;;;3.12;100.00
3122;BME280;1571;52.524;14.104;2023-11-21T09:47:53;100908.91;;;3.01;100.00
3122;BME280;1571;52.524;14.104;2023-11-21T09:50:23;100906.38;;;2.98;100.00
3122;BME280;1571;52.524;14.104;2023-11-21T09:55:44;100920.16;;;3.06;100.00
3122;BME280;1571;52.524;14.104;2023-11-21T09:58:14;100923.50;;;3.11;100.00
3122;BME280;1571;52.524;14.104;2023-11-21T10:00:44;100920.47;;;2.94;100.00
3122;BME280;1571;52.524;14.104;2023-11-21T10:03:13;100914.81;;;2.78;100.00
3122;BME280;1571;52.524;14.104;2023-11-21T10:05:43;100911.63;;;2.98;100.00
3122;BME280;1571;52.524;14.104;2023-11-21T10:08:13;100923.38;;;3.15;100.00
3122;BME280;1571;52.524;14.104;2023-11-21T10:10:43;100929.84;;;3.03;100.00
3122;BME280;1571;52.524;14.104;2023-11-21T10:13:14;100927.09;;;3.07;100.00
3122;BME280;1571;52.524;14.104;2023-11-21T10:15:49;100943.97;;;2.97;100.00
3122;BME280;1571;52.524;14.104;2023-11-21T10:18:18;100933.56;;;2.96;100.00
3122;BME280;1571;52.524;14.104;2023-11-21T10:20:46;100941.59;;;2.89;100.00
3122;BME280;1571;52.524;14.104;2023-11-21T10:23:20;100943.19;;;2.95;100.00
3122;BME280;1571;52.524;14.104;2023-11-21T10:25:50;100939.66;;;2.96;100.00
3122;BME280;1571;52.524;14.104;2023-11-21T10:28:21;100943.19;;;2.95;100.00
3122;BME280;1571;52.524;14.104;2023-11-21T10:30:49;100945.16;;;2.87;100.00
3122;BME280;1571;52.524;14.104;2023-11-21T10:33:17;100946.59;;;2.97;100.00
3122;BME280;1571;52.524;14.104;2023-11-21T10:35:54;100941.97;;;3.07;100.00
3122;BME280;1571;52.524;14.104;2023-11-21T10:38:23;100950.97;;;2.98;100.00
3122;BME280;1571;52.524;14.104;2023-11-21T10:40:53;100943.34;;;2.89;100.00
3122;BME280;1571;52.524;14.104;2023-11-21T10:43:25;100944.91;;;2.96;100.00
3122;BME280;1571;52.524;14.104;2023-11-21T10:45:57;100947.16;;;3.08;100.00
3122;BME280;1571;52.524;14.104;2023-11-21T10:48:26;100952.19;;;3.18;100.00
3122;BME280;1571;52.524;14.104;2023-11-21T10:50:55;100947.81;;;3.17;100.00
3122;BME280;1571;52.524;14.104;2023-11-21T10:53:23;100950.59;;;3.10;100.00
3122;BME280;1571;52.524;14.104;2023-11-21T10:56:01;100960.72;;;2.93;100.00
3122;BME280;1571;52.524;14.104;2023-11-21T10:58:32;100946.59;;;2.97;100.00
3122;BME280;1571;52.524;14.104;2023-11-21T11:01:02;100952.41;;;3.08;100.00
3122;BME280;1571;52.524;14.104;2023-11-21T11:03:33;100951.22;;;3.20;100.00
3122;BME280;1571;52.524;14.104;2023-11-21T11:06:05;100959.31;;;3.12;100.00
3122;BME280;1571;52.524;14.104;2023-11-21T11:08:38;100963.72;;;3.10;100.00
3122;BME280;1571;52.524;14.104;2023-11-21T11:11:07;100965.16;;;2.91;100.00
3122;BME280;1571;52.524;14.104;2023-11-21T11:13:42;100968.34;;;2.69;100.00
3122;BME280;1571;52.524;14.104;2023-11-21T11:16:11;100973.53;;;2.73;100.00
3122;BME280;1571;52.524;14.104;2023-11-21T11:18:44;100977.75;;;2.77;100.00
3122;BME280;1571;52.524;14.104;2023-11-21T11:21:26;100979.56;;;2.75;100.00
3122;BME280;1571;52.524;14.104;2023-11-21T11:24:07;100982.03;;;2.81;100.00
3122;BME280;1571;52.524;14.104;2023-11-21T11:26:44;100987.56;;;3.03;100.00
3122;BME280;1571;52.524;14.104;2023-11-21T11:29:23;100988.50;;;3.00;100.00
3122;BME280;1571;52.524;14.104;2023-11-21T11:32:06;100985.94;;;2.97;100.00
3122;BME280;1571;52.524;14.104;2023-11-21T11:34:41;100993.91;;;2.94;100.00
3122;BME280;1571;52.524;14.104;2023-11-21T11:37:12;100985.34;;;2.87;100.00
3122;BME280;1571;52.524;14.104;2023-11-21T11:39:42;100999.66;;;2.76;100.00
3122;BME280;1571;52.524;14.104;2023-11-21T11:42:13;100993.38;;;2.81;100.00
3122;BME280;1571;52.524;14.104;2023-11-21T11:44:49;101013.34;;;2.87;100.00
3122;BME280;1571;52.524;14.104;2023-11-21T11:47:21;101008.63;;;3.00;100.00
3122;BME280;1571;52.524;14.104;2023-11-21T11:49:57;101011.94;;;2.74;100.00
3122;BME280;1571;52.524;14.104;2023-11-21T11:52:32;101022.09;;;2.86;100.00
3122;BME280;1571;52.524;14.104;2023-11-21T11:55:02;101014.97;;;2.91;100.00
3122;BME280;1571;52.524;14.104;2023-11-21T11:57:31;101021.53;;;3.07;100.00
3122;BME280;1571;52.524;14.104;2023-11-21T12:00:12;101035.03;;;2.94;100.00
3122;BME280;1571;52.524;14.104;2023-11-21T12:02:44;101034.31;;;2.87;100.00
3122;BME280;1571;52.524;14.104;2023-11-21T12:05:15;101047.31;;;2.91;100.00
3122;BME280;1571;52.524;14.104;2023-11-21T12:07:47;101042.84;;;2.95;100.00
3122;BME280;1571;52.524;14.104;2023-11-21T12:10:17;101046.38;;;2.94;100.00
3122;BME280;1571;52.524;14.104;2023-11-21T12:12:47;101045.22;;;2.70;100.00
3122;BME280;1571;52.524;14.104;2023-11-21T12:15:17;101061.28;;;2.56;100.00
3122;BME280;1571;52.524;14.104;2023-11-21T12:17:46;101068.38;;;2.53;100.00
3122;BME280;1571;52.524;14.104;2023-11-21T12:20:18;101073.72;;;2.48;100.00
3122;BME280;1571;52.524;14.104;2023-11-21T12:22:48;101070.84;;;2.59;100.00
3122;BME280;1571;52.524;14.104;2023-11-21T12:25:18;101086.84;;;2.48;100.00
3122;BME280;1571;52.524;14.104;2023-11-21T12:27:48;101085.94;;;2.49;100.00
3122;BME280;1571;52.524;14.104;2023-11-21T12:30:19;101095.97;;;2.67;100.00
3122;BME280;1571;52.524;14.104;2023-11-21T12:32:50;101097.13;;;2.56;100.00
3122;BME280;1571;52.524;14.104;2023-11-21T12:35:21;101093.47;;;2.63;100.00
3122;BME280;1571;52.524;14.104;2023-11-21T12:37:51;101101.28;;;2.64;100.00
3122;BME280;1571;52.524;14.104;2023-11-21T12:40:19;101101.56;;;2.52;100.00
3122;BME280;1571;52.524;14.104;2023-11-21T12:42:51;101104.06;;;2.58;100.00
3122;BME280;1571;52.524;14.104;2023-11-21T12:45:23;101109.19;;;2.63;100.00
3122;BME280;1571;52.524;14.104;2023-11-21T12:47:55;101106.50;;;2.66;100.00
3122;BME280;1571;52.524;14.104;2023-11-21T12:50:28;101117.13;;;2.60;100.00
3122;BME280;1571;52.524;14.104;2023-11-21T12:53:00;101114.13;;;2.38;100.00
3122;BME280;1571;52.524;14.104;2023-11-21T12:55:30;101120.09;;;2.44;100.00
3122;BME280;1571;52.524;14.104;2023-11-21T12:58:01;101121.03;;;2.42;100.00
3122;BME280;1571;52.524;14.104;2023-11-21T13:00:39;101122.69;;;2.46;100.00
3122;BME280;1571;52.524;14.104;2023-11-21T13:03:11;101121.16;;;2.36;100.00
3122;BME280;1571;52.524;14.104;2023-11-21T13:05:44;101124.59;;;2.39;100.00
3122;BME280;1571;52.524;14.104;2023-11-21T13:08:15;101137.47;;;2.10;100.00
3122;BME280;1571;52.524;14.104;2023-11-21T13:10:49;101132.66;;;2.30;100.00
3122;BME280;1571;52.524;14.104;2023-11-21T13:13:19;101137.94;;;2.28;100.00
3122;BME280;1571;52.524;14.104;2023-11-21T13:15:53;101140.66;;;2.22;100.00
3122;BME280;1571;52.524;14.104;2023-11-21T13:18:23;101144.84;;;2.31;100.00
3122;BME280;1571;52.524;14.104;2023-11-21T13:20:52;101148.31;;;2.33;100.00